sensor_id;sensor_type;location;lat;lon;timestamp;P1;durP1;ratioP1;P2;durP2;ratioP2
34064;SDS011;20339;49.754;20.158;2022-10-16T00:01:22;13.00;;;9.50;;
34064;SDS011;20339;49.754;20.158;2022-10-16T00:03:56;10.20;;;8.50;;
34064;SDS011;20339;49.754;20.158;2022-10-16T00:06:29;11.50;;;9.10;;
34064;SDS011;20339;49.754;20.158;2022-10-16T00:09:00;12.80;;;9.30;;
34064;SDS011;20339;49.754;20.158;2022-10-16T00:11:33;12.40;;;9.20;;
34064;SDS011;20339;49.754;20.158;2022-10-16T00:14:06;12.20;;;9.50;;
34064;SDS011;20339;49.754;20.158;2022-10-16T00:16:41;10.80;;;9.60;;
34064;SDS011;20339;49.754;20.158;2022-10-16T00:19:12;10.90;;;9.70;;
34064;SDS011;20339;49.754;20.158;2022-10-16T00:21:43;14.10;;;10.00;;
34064;SDS011;20339;49.754;20.158;2022-10-16T00:24:15;11.30;;;10.00;;
34064;SDS011;20339;49.754;20.158;2022-10-16T00:26:46;12.90;;;9.50;;
34064;SDS011;20339;49.754;20.158;2022-10-16T00:29:20;13.00;;;9.40;;
34064;SDS011;20339;49.754;20.158;2022-10-16T00:31:51;12.10;;;9.40;;
34064;SDS011;20339;49.754;20.158;2022-10-16T00:34:23;11.20;;;9.80;;
34064;SDS011;20339;49.754;20.158;2022-10-16T00:36:54;10.80;;;9.50;;
34064;SDS011;20339;49.754;20.158;2022-10-16T00:39:25;11.70;;;9.10;;
34064;SDS011;20339;49.754;20.158;2022-10-16T00:41:58;13.10;;;9.70;;
34064;SDS011;20339;49.754;20.158;2022-10-16T00:44:47;13.60;;;9.60;;
34064;SDS011;20339;49.754;20.158;2022-10-16T00:47:21;12.10;;;9.30;;
34064;SDS011;20339;49.754;20.158;2022-10-16T00:49:57;11.90;;;9.30;;
34064;SDS011;20339;49.754;20.158;2022-10-16T00:52:34;13.20;;;9.60;;
34064;SDS011;20339;49.754;20.158;2022-10-16T00:55:06;14.60;;;9.40;;
34064;SDS011;20339;49.754;20.158;2022-10-16T00:57:40;12.40;;;8.90;;
34064;SDS011;20339;49.754;20.158;2022-10-16T01:00:14;11.70;;;9.30;;
34064;SDS011;20339;49.754;20.158;2022-10-16T01:02:52;10.30;;;9.00;;
34064;SDS011;20339;49.754;20.158;2022-10-16T01:05:26;10.90;;;9.20;;
34064;SDS011;20339;49.754;20.158;2022-10-16T01:08:08;10.80;;;8.90;;
34064;SDS011;20339;49.754;20.158;2022-10-16T01:10:48;15.50;;;8.50;;
34064;SDS011;20339;49.754;20.158;2022-10-16T01:13:27;13.70;;;9.90;;
34064;SDS011;20339;49.754;20.158;2022-10-16T01:16:10;10.30;;;8.70;;
34064;SDS011;20339;49.754;20.158;2022-10-16T01:18:49;12.10;;;9.30;;
34064;SDS011;20339;49.754;20.158;2022-10-16T01:21:26;12.40;;;9.70;;
34064;SDS011;20339;49.754;20.158;2022-10-16T01:24:01;11.80;;;10.30;;
34064;SDS011;20339;49.754;20.158;2022-10-16T01:26:41;10.30;;;8.90;;
34064;SDS011;20339;49.754;20.158;2022-10-16T01:29:22;13.80;;;9.60;;
34064;SDS011;20339;49.754;20.158;2022-10-16T01:31:59;10.70;;;8.90;;
34064;SDS011;20339;49.754;20.158;2022-10-16T01:34:37;12.50;;;8.70;;
34064;SDS011;20339;49.754;20.158;2022-10-16T01:37:16;10.40;;;9.30;;
34064;SDS011;20339;49.754;20.158;2022-10-16T01:39:54;12.50;;;9.00;;
34064;SDS011;20339;49.754;20.158;2022-10-16T01:42:30;11.40;;;8.90;;
34064;SDS011;20339;49.754;20.158;2022-10-16T01:45:08;11.80;;;9.20;;
34064;SDS011;20339;49.754;20.158;2022-10-16T01:47:46;11.10;;;9.30;;
34064;SDS011;20339;49.754;20.158;2022-10-16T01:50:20;9.70;;;8.40;;
34064;SDS011;20339;49.754;20.158;2022-10-16T01:52:52;10.30;;;8.40;;
34064;SDS011;20339;49.754;20.158;2022-10-16T01:55:26;12.40;;;10.00;;
34064;SDS011;20339;49.754;20.158;2022-10-16T01:58:01;12.20;;;9.50;;
34064;SDS011;20339;49.754;20.158;2022-10-16T02:00:36;12.40;;;9.60;;
34064;SDS011;20339;49.754;20.158;2022-10-16T02:03:11;11.10;;;8.80;;
34064;SDS011;20339;49.754;20.158;2022-10-16T02:05:48;12.50;;;9.90;;
34064;SDS011;20339;49.754;20.158;2022-10-16T02:08:23;9.50;;;8.30;;
34064;SDS011;20339;49.754;20.158;2022-10-16T02:10:57;13.50;;;10.00;;
34064;SDS011;20339;49.754;20.158;2022-10-16T02:13:30;12.10;;;10.30;;
34064;SDS011;20339;49.754;20.158;2022-10-16T02:16:05;12.70;;;10.10;;
34064;SDS011;20339;49.754;20.158;2022-10-16T02:18:38;10.80;;;9.50;;
34064;SDS011;20339;49.754;20.158;2022-10-16T02:21:12;11.40;;;9.80;;
34064;SDS011;20339;49.754;20.158;2022-10-16T02:23:50;11.40;;;9.70;;
34064;SDS011;20339;49.754;20.158;2022-10-16T02:26:28;11.90;;;9.60;;
34064;SDS011;20339;49.754;20.158;2022-10-16T02:29:05;12.10;;;9.90;;
34064;SDS011;20339;49.754;20.158;2022-10-16T02:31:41;12.10;;;10.30;;
34064;SDS011;20339;49.754;20.158;2022-10-16T02:34:15;13.90;;;10.70;;
34064;SDS011;20339;49.754;20.158;2022-10-16T02:36:47;12.10;;;10.10;;
34064;SDS011;20339;49.754;20.158;2022-10-16T02:39:20;12.50;;;10.10;;
34064;SDS011;20339;49.754;20.158;2022-10-16T02:41:51;13.20;;;10.60;;
34064;SDS011;20339;49.754;20.158;2022-10-16T02:44:22;13.70;;;10.10;;
34064;SDS011;20339;49.754;20.158;2022-10-16T02:46:53;11.50;;;9.70;;
34064;SDS011;20339;49.754;20.158;2022-10-16T02:49:25;11.70;;;9.90;;
34064;SDS011;20339;49.754;20.158;2022-10-16T02:51:58;13.40;;;11.30;;
34064;SDS011;20339;49.754;20.158;2022-10-16T02:54:29;11.90;;;10.40;;
34064;SDS011;20339;49.754;20.158;2022-10-16T02:57:01;12.50;;;9.60;;
34064;SDS011;20339;49.754;20.158;2022-10-16T02:59:34;11.50;;;10.20;;
34064;SDS011;20339;49.754;20.158;2022-10-16T03:02:06;13.10;;;10.60;;
34064;SDS011;20339;49.754;20.158;2022-10-16T03:04:37;12.10;;;9.30;;
34064;SDS011;20339;49.754;20.158;2022-10-16T03:07:09;18.30;;;10.00;;
34064;SDS011;20339;49.754;20.158;2022-10-16T03:09:40;14.10;;;9.60;;
34064;SDS011;20339;49.754;20.158;2022-10-16T03:12:11;9.50;;;8.20;;
34064;SDS011;20339;49.754;20.158;2022-10-16T03:14:42;11.40;;;8.90;;
34064;SDS011;20339;49.754;20.158;2022-10-16T03:17:14;10.50;;;8.40;;
34064;SDS011;20339;49.754;20.158;2022-10-16T03:19:45;14.90;;;9.50;;
34064;SDS011;20339;49.754;20.158;2022-10-16T03:22:16;11.10;;;8.60;;
34064;SDS011;20339;49.754;20.158;2022-10-16T03:24:47;11.40;;;8.70;;
34064;SDS011;20339;49.754;20.158;2022-10-16T03:27:19;10.20;;;8.40;;
34064;SDS011;20339;49.754;20.158;2022-10-16T03:29:50;10.40;;;8.80;;
34064;SDS011;20339;49.754;20.158;2022-10-16T03:32:21;11.40;;;8.90;;
34064;SDS011;20339;49.754;20.158;2022-10-16T03:34:52;11.40;;;8.90;;
34064;SDS011;20339;49.754;20.158;2022-10-16T03:37:24;10.90;;;8.40;;
34064;SDS011;20339;49.754;20.158;2022-10-16T03:39:55;11.30;;;9.40;;
34064;SDS011;20339;49.754;20.158;2022-10-16T03:42:27;13.10;;;8.90;;
34064;SDS011;20339;49.754;20.158;2022-10-16T03:44:58;11.60;;;9.50;;
34064;SDS011;20339;49.754;20.158;2022-10-16T03:47:29;11.00;;;8.40;;
34064;SDS011;20339;49.754;20.158;2022-10-16T03:50:01;13.30;;;8.70;;
34064;SDS011;20339;49.754;20.158;2022-10-16T03:52:33;12.50;;;9.70;;
34064;SDS011;20339;49.754;20.158;2022-10-16T03:55:05;11.70;;;9.00;;
34064;SDS011;20339;49.754;20.158;2022-10-16T03:57:37;10.80;;;7.80;;
34064;SDS011;20339;49.754;20.158;2022-10-16T04:00:12;11.40;;;8.40;;
34064;SDS011;20339;49.754;20.158;2022-10-16T04:02:43;16.10;;;9.70;;
34064;SDS011;20339;49.754;20.158;2022-10-16T04:05:15;10.20;;;8.00;;
34064;SDS011;20339;49.754;20.158;2022-10-16T04:07:46;10.70;;;7.40;;
34064;SDS011;20339;49.754;20.158;2022-10-16T04:10:18;12.40;;;9.60;;
34064;SDS011;20339;49.754;20.158;2022-10-16T04:12:49;11.50;;;8.60;;
34064;SDS011;20339;49.754;20.158;2022-10-16T04:15:22;13.40;;;9.30;;
34064;SDS011;20339;49.754;20.158;2022-10-16T04:17:54;11.20;;;8.60;;
34064;SDS011;20339;49.754;20.158;2022-10-16T04:20:26;13.40;;;9.30;;
34064;SDS011;20339;49.754;20.158;2022-10-16T04:22:57;9.70;;;8.10;;
34064;SDS011;20339;49.754;20.158;2022-10-16T04:25:29;10.20;;;8.80;;
34064;SDS011;20339;49.754;20.158;2022-10-16T04:28:00;9.30;;;7.90;;
34064;SDS011;20339;49.754;20.158;2022-10-16T04:30:31;12.40;;;8.80;;
34064;SDS011;20339;49.754;20.158;2022-10-16T04:33:03;14.50;;;9.20;;
34064;SDS011;20339;49.754;20.158;2022-10-16T04:35:34;12.10;;;8.90;;
34064;SDS011;20339;49.754;20.158;2022-10-16T04:38:05;16.20;;;9.60;;
34064;SDS011;20339;49.754;20.158;2022-10-16T04:40:36;10.40;;;8.50;;
34064;SDS011;20339;49.754;20.158;2022-10-16T04:43:07;11.20;;;7.90;;
34064;SDS011;20339;49.754;20.158;2022-10-16T04:45:39;10.70;;;9.20;;
34064;SDS011;20339;49.754;20.158;2022-10-16T04:48:10;11.50;;;8.40;;
34064;SDS011;20339;49.754;20.158;2022-10-16T04:50:42;9.70;;;7.70;;
34064;SDS011;20339;49.754;20.158;2022-10-16T04:53:13;11.90;;;9.00;;
34064;SDS011;20339;49.754;20.158;2022-10-16T04:55:44;8.90;;;7.10;;
34064;SDS011;20339;49.754;20.158;2022-10-16T04:58:15;10.70;;;8.30;;
34064;SDS011;20339;49.754;20.158;2022-10-16T05:00:46;11.50;;;8.60;;
34064;SDS011;20339;49.754;20.158;2022-10-16T05:03:17;12.00;;;8.80;;
34064;SDS011;20339;49.754;20.158;2022-10-16T05:05:49;14.10;;;9.10;;
34064;SDS011;20339;49.754;20.158;2022-10-16T05:08:20;10.30;;;8.00;;
34064;SDS011;20339;49.754;20.158;2022-10-16T05:10:51;12.80;;;8.90;;
34064;SDS011;20339;49.754;20.158;2022-10-16T05:13:24;11.20;;;9.20;;
34064;SDS011;20339;49.754;20.158;2022-10-16T05:15:58;11.50;;;8.80;;
34064;SDS011;20339;49.754;20.158;2022-10-16T05:18:29;16.00;;;9.40;;
34064;SDS011;20339;49.754;20.158;2022-10-16T05:21:00;10.50;;;9.00;;
34064;SDS011;20339;49.754;20.158;2022-10-16T05:23:32;12.70;;;8.60;;
34064;SDS011;20339;49.754;20.158;2022-10-16T05:26:03;11.40;;;9.00;;
34064;SDS011;20339;49.754;20.158;2022-10-16T05:28:34;12.20;;;9.60;;
34064;SDS011;20339;49.754;20.158;2022-10-16T05:31:08;10.70;;;8.70;;
34064;SDS011;20339;49.754;20.158;2022-10-16T05:33:40;11.40;;;8.80;;
34064;SDS011;20339;49.754;20.158;2022-10-16T05:36:12;10.10;;;7.70;;
34064;SDS011;20339;49.754;20.158;2022-10-16T05:38:43;10.20;;;8.70;;
34064;SDS011;20339;49.754;20.158;2022-10-16T05:41:14;11.90;;;8.80;;
34064;SDS011;20339;49.754;20.158;2022-10-16T05:43:49;11.10;;;8.80;;
34064;SDS011;20339;49.754;20.158;2022-10-16T05:46:20;11.60;;;8.90;;
34064;SDS011;20339;49.754;20.158;2022-10-16T05:48:52;10.60;;;7.90;;
34064;SDS011;20339;49.754;20.158;2022-10-16T05:51:24;11.90;;;8.80;;
34064;SDS011;20339;49.754;20.158;2022-10-16T05:53:55;9.70;;;8.10;;
34064;SDS011;20339;49.754;20.158;2022-10-16T05:56:29;10.10;;;8.10;;
34064;SDS011;20339;49.754;20.158;2022-10-16T05:59:00;10.30;;;8.10;;
34064;SDS011;20339;49.754;20.158;2022-10-16T06:01:32;9.80;;;8.80;;
34064;SDS011;20339;49.754;20.158;2022-10-16T06:04:03;10.40;;;8.10;;
34064;SDS011;20339;49.754;20.158;2022-10-16T06:06:37;9.40;;;8.10;;
34064;SDS011;20339;49.754;20.158;2022-10-16T06:09:09;10.60;;;8.50;;
34064;SDS011;20339;49.754;20.158;2022-10-16T06:11:40;12.10;;;8.20;;
34064;SDS011;20339;49.754;20.158;2022-10-16T06:14:13;10.00;;;8.40;;
34064;SDS011;20339;49.754;20.158;2022-10-16T06:16:45;10.30;;;8.70;;
34064;SDS011;20339;49.754;20.158;2022-10-16T06:19:17;13.40;;;9.10;;
34064;SDS011;20339;49.754;20.158;2022-10-16T06:21:48;10.20;;;8.50;;
34064;SDS011;20339;49.754;20.158;2022-10-16T06:24:19;11.00;;;8.20;;
34064;SDS011;20339;49.754;20.158;2022-10-16T06:26:51;11.50;;;8.90;;
34064;SDS011;20339;49.754;20.158;2022-10-16T06:29:22;10.10;;;8.60;;
34064;SDS011;20339;49.754;20.158;2022-10-16T06:31:54;8.50;;;7.40;;
34064;SDS011;20339;49.754;20.158;2022-10-16T06:34:27;12.10;;;7.30;;
34064;SDS011;20339;49.754;20.158;2022-10-16T06:36:58;10.10;;;7.60;;
34064;SDS011;20339;49.754;20.158;2022-10-16T06:39:30;13.20;;;7.60;;
34064;SDS011;20339;49.754;20.158;2022-10-16T06:42:02;11.20;;;8.30;;
34064;SDS011;20339;49.754;20.158;2022-10-16T06:44:35;10.60;;;8.40;;
34064;SDS011;20339;49.754;20.158;2022-10-16T06:47:07;10.90;;;8.00;;
34064;SDS011;20339;49.754;20.158;2022-10-16T06:49:38;10.10;;;7.90;;
34064;SDS011;20339;49.754;20.158;2022-10-16T06:52:10;9.50;;;7.80;;
34064;SDS011;20339;49.754;20.158;2022-10-16T06:54:41;9.30;;;7.80;;
34064;SDS011;20339;49.754;20.158;2022-10-16T06:57:12;10.10;;;7.80;;
34064;SDS011;20339;49.754;20.158;2022-10-16T06:59:43;10.80;;;7.60;;
34064;SDS011;20339;49.754;20.158;2022-10-16T07:02:15;9.70;;;8.20;;
34064;SDS011;20339;49.754;20.158;2022-10-16T07:04:46;9.30;;;7.30;;
34064;SDS011;20339;49.754;20.158;2022-10-16T07:07:17;10.90;;;7.70;;
34064;SDS011;20339;49.754;20.158;2022-10-16T07:09:48;11.40;;;7.90;;
34064;SDS011;20339;49.754;20.158;2022-10-16T07:12:20;10.50;;;7.40;;
34064;SDS011;20339;49.754;20.158;2022-10-16T07:14:51;13.70;;;7.70;;
34064;SDS011;20339;49.754;20.158;2022-10-16T07:17:23;9.40;;;7.20;;
34064;SDS011;20339;49.754;20.158;2022-10-16T07:19:54;9.80;;;7.30;;
34064;SDS011;20339;49.754;20.158;2022-10-16T07:22:27;8.30;;;7.10;;
34064;SDS011;20339;49.754;20.158;2022-10-16T07:25:03;9.00;;;7.30;;
34064;SDS011;20339;49.754;20.158;2022-10-16T07:27:36;8.90;;;6.70;;
34064;SDS011;20339;49.754;20.158;2022-10-16T07:30:09;9.40;;;7.50;;
34064;SDS011;20339;49.754;20.158;2022-10-16T07:32:41;11.20;;;8.60;;
34064;SDS011;20339;49.754;20.158;2022-10-16T07:35:13;10.80;;;7.30;;
34064;SDS011;20339;49.754;20.158;2022-10-16T07:37:45;11.40;;;8.10;;
34064;SDS011;20339;49.754;20.158;2022-10-16T07:40:17;11.50;;;8.30;;
34064;SDS011;20339;49.754;20.158;2022-10-16T07:42:49;9.10;;;7.90;;
34064;SDS011;20339;49.754;20.158;2022-10-16T07:45:22;8.90;;;7.00;;
34064;SDS011;20339;49.754;20.158;2022-10-16T07:47:54;10.10;;;6.90;;
34064;SDS011;20339;49.754;20.158;2022-10-16T07:50:26;9.50;;;6.80;;
34064;SDS011;20339;49.754;20.158;2022-10-16T07:52:58;7.60;;;5.70;;
34064;SDS011;20339;49.754;20.158;2022-10-16T07:55:29;9.30;;;6.60;;
34064;SDS011;20339;49.754;20.158;2022-10-16T07:58:01;11.00;;;6.50;;
34064;SDS011;20339;49.754;20.158;2022-10-16T08:00:33;8.20;;;6.60;;
34064;SDS011;20339;49.754;20.158;2022-10-16T08:03:05;9.90;;;6.70;;
34064;SDS011;20339;49.754;20.158;2022-10-16T08:05:37;10.00;;;6.90;;
34064;SDS011;20339;49.754;20.158;2022-10-16T08:08:11;9.60;;;7.00;;
34064;SDS011;20339;49.754;20.158;2022-10-16T08:10:44;8.90;;;7.30;;
34064;SDS011;20339;49.754;20.158;2022-10-16T08:13:15;10.10;;;7.00;;
34064;SDS011;20339;49.754;20.158;2022-10-16T08:15:47;8.20;;;7.00;;
34064;SDS011;20339;49.754;20.158;2022-10-16T08:18:18;9.30;;;6.90;;
34064;SDS011;20339;49.754;20.158;2022-10-16T08:20:54;8.90;;;7.60;;
34064;SDS011;20339;49.754;20.158;2022-10-16T08:23:27;9.30;;;7.00;;
34064;SDS011;20339;49.754;20.158;2022-10-16T08:26:02;8.00;;;6.70;;
34064;SDS011;20339;49.754;20.158;2022-10-16T08:28:35;9.40;;;7.00;;
34064;SDS011;20339;49.754;20.158;2022-10-16T08:31:10;8.50;;;6.90;;
34064;SDS011;20339;49.754;20.158;2022-10-16T08:33:43;8.20;;;6.50;;
34064;SDS011;20339;49.754;20.158;2022-10-16T08:36:16;10.70;;;6.20;;
34064;SDS011;20339;49.754;20.158;2022-10-16T08:38:48;9.30;;;6.60;;
34064;SDS011;20339;49.754;20.158;2022-10-16T08:41:24;6.90;;;5.60;;
34064;SDS011;20339;49.754;20.158;2022-10-16T08:44:24;9.30;;;6.80;;
34064;SDS011;20339;49.754;20.158;2022-10-16T08:47:08;8.00;;;6.00;;
34064;SDS011;20339;49.754;20.158;2022-10-16T08:49:51;7.60;;;6.00;;
34064;SDS011;20339;49.754;20.158;2022-10-16T08:52:28;8.70;;;6.10;;
34064;SDS011;20339;49.754;20.158;2022-10-16T08:55:03;7.10;;;5.70;;
34064;SDS011;20339;49.754;20.158;2022-10-16T08:57:35;7.90;;;6.30;;
34064;SDS011;20339;49.754;20.158;2022-10-16T09:00:09;8.00;;;6.20;;
34064;SDS011;20339;49.754;20.158;2022-10-16T09:02:49;7.40;;;5.40;;
34064;SDS011;20339;49.754;20.158;2022-10-16T09:05:27;7.30;;;5.30;;
34064;SDS011;20339;49.754;20.158;2022-10-16T09:08:17;8.80;;;6.00;;
34064;SDS011;20339;49.754;20.158;2022-10-16T09:10:58;7.30;;;5.70;;
34064;SDS011;20339;49.754;20.158;2022-10-16T09:13:36;10.10;;;6.40;;
34064;SDS011;20339;49.754;20.158;2022-10-16T09:16:18;8.00;;;5.70;;
34064;SDS011;20339;49.754;20.158;2022-10-16T09:18:58;7.40;;;5.80;;
34064;SDS011;20339;49.754;20.158;2022-10-16T09:21:39;8.40;;;6.30;;
34064;SDS011;20339;49.754;20.158;2022-10-16T09:24:16;8.90;;;6.60;;
34064;SDS011;20339;49.754;20.158;2022-10-16T09:26:49;8.50;;;5.50;;
34064;SDS011;20339;49.754;20.158;2022-10-16T09:29:21;8.40;;;6.10;;
34064;SDS011;20339;49.754;20.158;2022-10-16T09:31:53;7.10;;;5.80;;
34064;SDS011;20339;49.754;20.158;2022-10-16T09:34:37;7.80;;;5.60;;
34064;SDS011;20339;49.754;20.158;2022-10-16T09:37:14;11.00;;;7.10;;
34064;SDS011;20339;49.754;20.158;2022-10-16T09:39:48;8.80;;;6.60;;
34064;SDS011;20339;49.754;20.158;2022-10-16T09:42:21;7.60;;;5.20;;
34064;SDS011;20339;49.754;20.158;2022-10-16T09:44:57;11.10;;;6.90;;
34064;SDS011;20339;49.754;20.158;2022-10-16T09:47:29;10.80;;;7.00;;
34064;SDS011;20339;49.754;20.158;2022-10-16T09:50:19;8.40;;;6.80;;
34064;SDS011;20339;49.754;20.158;2022-10-16T09:53:04;8.60;;;7.20;;
34064;SDS011;20339;49.754;20.158;2022-10-16T09:55:49;8.10;;;7.10;;
34064;SDS011;20339;49.754;20.158;2022-10-16T09:58:22;9.10;;;7.70;;
34064;SDS011;20339;49.754;20.158;2022-10-16T10:00:54;10.20;;;7.00;;
34064;SDS011;20339;49.754;20.158;2022-10-16T10:03:30;9.70;;;6.20;;
34064;SDS011;20339;49.754;20.158;2022-10-16T10:06:14;9.60;;;7.10;;
34064;SDS011;20339;49.754;20.158;2022-10-16T10:08:56;7.80;;;6.20;;
34064;SDS011;20339;49.754;20.158;2022-10-16T10:11:39;10.30;;;6.80;;
34064;SDS011;20339;49.754;20.158;2022-10-16T10:14:18;8.30;;;7.40;;
34064;SDS011;20339;49.754;20.158;2022-10-16T10:16:52;9.30;;;6.90;;
34064;SDS011;20339;49.754;20.158;2022-10-16T10:19:37;10.60;;;6.70;;
34064;SDS011;20339;49.754;20.158;2022-10-16T10:22:19;7.60;;;5.50;;
34064;SDS011;20339;49.754;20.158;2022-10-16T10:24:57;8.90;;;7.10;;
34064;SDS011;20339;49.754;20.158;2022-10-16T10:27:47;8.10;;;6.60;;
34064;SDS011;20339;49.754;20.158;2022-10-16T10:30:32;7.70;;;6.10;;
34064;SDS011;20339;49.754;20.158;2022-10-16T10:33:14;8.80;;;5.80;;
34064;SDS011;20339;49.754;20.158;2022-10-16T10:35:54;9.20;;;6.40;;
34064;SDS011;20339;49.754;20.158;2022-10-16T10:38:38;7.40;;;6.10;;
34064;SDS011;20339;49.754;20.158;2022-10-16T10:41:23;9.20;;;6.70;;
34064;SDS011;20339;49.754;20.158;2022-10-16T10:44:19;8.30;;;5.90;;
34064;SDS011;20339;49.754;20.158;2022-10-16T10:47:00;8.40;;;6.50;;
34064;SDS011;20339;49.754;20.158;2022-10-16T10:49:46;8.40;;;6.60;;
34064;SDS011;20339;49.754;20.158;2022-10-16T10:52:30;8.40;;;6.70;;
34064;SDS011;20339;49.754;20.158;2022-10-16T10:55:13;9.00;;;6.40;;
34064;SDS011;20339;49.754;20.158;2022-10-16T10:58:04;7.40;;;6.30;;
34064;SDS011;20339;49.754;20.158;2022-10-16T11:00:57;8.10;;;6.60;;
34064;SDS011;20339;49.754;20.158;2022-10-16T11:06:35;8.50;;;6.40;;
34064;SDS011;20339;49.754;20.158;2022-10-16T11:09:12;7.80;;;6.10;;
34064;SDS011;20339;49.754;20.158;2022-10-16T11:11:47;12.10;;;6.40;;
34064;SDS011;20339;49.754;20.158;2022-10-16T11:14:24;8.20;;;5.50;;
34064;SDS011;20339;49.754;20.158;2022-10-16T11:17:04;7.10;;;5.80;;
34064;SDS011;20339;49.754;20.158;2022-10-16T11:19:41;6.60;;;5.20;;
34064;SDS011;20339;49.754;20.158;2022-10-16T11:22:19;8.70;;;5.90;;
34064;SDS011;20339;49.754;20.158;2022-10-16T11:24:58;7.90;;;5.30;;
34064;SDS011;20339;49.754;20.158;2022-10-16T11:27:36;10.00;;;6.70;;
34064;SDS011;20339;49.754;20.158;2022-10-16T11:30:14;7.60;;;5.70;;
34064;SDS011;20339;49.754;20.158;2022-10-16T11:32:53;7.10;;;5.50;;
34064;SDS011;20339;49.754;20.158;2022-10-16T11:35:36;6.30;;;5.30;;
34064;SDS011;20339;49.754;20.158;2022-10-16T11:38:14;7.90;;;5.20;;
34064;SDS011;20339;49.754;20.158;2022-10-16T11:40:56;6.70;;;5.10;;
34064;SDS011;20339;49.754;20.158;2022-10-16T11:43:32;7.00;;;5.60;;
34064;SDS011;20339;49.754;20.158;2022-10-16T11:46:10;6.30;;;5.40;;
34064;SDS011;20339;49.754;20.158;2022-10-16T11:48:48;6.70;;;5.50;;
34064;SDS011;20339;49.754;20.158;2022-10-16T11:51:25;9.70;;;6.20;;
34064;SDS011;20339;49.754;20.158;2022-10-16T11:54:04;7.10;;;5.70;;
34064;SDS011;20339;49.754;20.158;2022-10-16T11:56:45;7.90;;;5.80;;
34064;SDS011;20339;49.754;20.158;2022-10-16T11:59:26;9.20;;;5.60;;
34064;SDS011;20339;49.754;20.158;2022-10-16T12:02:07;7.00;;;4.60;;
34064;SDS011;20339;49.754;20.158;2022-10-16T12:04:58;8.90;;;5.40;;
34064;SDS011;20339;49.754;20.158;2022-10-16T12:07:39;6.50;;;5.70;;
34064;SDS011;20339;49.754;20.158;2022-10-16T12:10:21;7.90;;;5.60;;
34064;SDS011;20339;49.754;20.158;2022-10-16T12:12:55;7.10;;;5.70;;
34064;SDS011;20339;49.754;20.158;2022-10-16T12:15:29;9.10;;;7.00;;
34064;SDS011;20339;49.754;20.158;2022-10-16T12:18:02;6.80;;;5.70;;
34064;SDS011;20339;49.754;20.158;2022-10-16T12:20:36;8.90;;;5.90;;
34064;SDS011;20339;49.754;20.158;2022-10-16T12:23:19;9.00;;;5.60;;
34064;SDS011;20339;49.754;20.158;2022-10-16T12:25:54;7.40;;;6.10;;
34064;SDS011;20339;49.754;20.158;2022-10-16T12:28:27;6.60;;;5.00;;
34064;SDS011;20339;49.754;20.158;2022-10-16T12:31:01;7.70;;;6.00;;
34064;SDS011;20339;49.754;20.158;2022-10-16T12:33:34;7.90;;;6.40;;
34064;SDS011;20339;49.754;20.158;2022-10-16T12:36:10;7.80;;;6.20;;
34064;SDS011;20339;49.754;20.158;2022-10-16T12:38:47;8.60;;;5.80;;
34064;SDS011;20339;49.754;20.158;2022-10-16T12:41:26;7.80;;;5.50;;
34064;SDS011;20339;49.754;20.158;2022-10-16T12:43:59;7.50;;;6.00;;
34064;SDS011;20339;49.754;20.158;2022-10-16T12:46:35;8.90;;;6.10;;
34064;SDS011;20339;49.754;20.158;2022-10-16T12:49:19;8.50;;;6.50;;
34064;SDS011;20339;49.754;20.158;2022-10-16T12:51:59;8.60;;;5.80;;
34064;SDS011;20339;49.754;20.158;2022-10-16T12:54:31;6.60;;;5.60;;
34064;SDS011;20339;49.754;20.158;2022-10-16T12:57:13;7.70;;;5.50;;
34064;SDS011;20339;49.754;20.158;2022-10-16T13:00:03;7.60;;;5.70;;
34064;SDS011;20339;49.754;20.158;2022-10-16T13:05:24;7.00;;;5.10;;
34064;SDS011;20339;49.754;20.158;2022-10-16T13:08:05;9.80;;;5.90;;
34064;SDS011;20339;49.754;20.158;2022-10-16T13:10:54;7.20;;;6.10;;
34064;SDS011;20339;49.754;20.158;2022-10-16T13:13:42;7.40;;;5.40;;
34064;SDS011;20339;49.754;20.158;2022-10-16T13:16:25;6.90;;;5.50;;
34064;SDS011;20339;49.754;20.158;2022-10-16T13:19:06;8.00;;;5.60;;
34064;SDS011;20339;49.754;20.158;2022-10-16T13:21:47;7.00;;;5.60;;
34064;SDS011;20339;49.754;20.158;2022-10-16T13:24:28;9.00;;;5.60;;
34064;SDS011;20339;49.754;20.158;2022-10-16T13:27:21;7.20;;;5.80;;
34064;SDS011;20339;49.754;20.158;2022-10-16T13:30:02;9.30;;;5.90;;
34064;SDS011;20339;49.754;20.158;2022-10-16T13:32:44;6.80;;;5.90;;
34064;SDS011;20339;49.754;20.158;2022-10-16T13:35:23;9.30;;;5.20;;
34064;SDS011;20339;49.754;20.158;2022-10-16T13:40:55;7.20;;;5.30;;
34064;SDS011;20339;49.754;20.158;2022-10-16T13:43:31;7.90;;;5.20;;
34064;SDS011;20339;49.754;20.158;2022-10-16T13:46:06;7.60;;;5.80;;
34064;SDS011;20339;49.754;20.158;2022-10-16T13:48:44;9.50;;;5.80;;
34064;SDS011;20339;49.754;20.158;2022-10-16T13:51:25;8.20;;;5.60;;
34064;SDS011;20339;49.754;20.158;2022-10-16T13:53:58;9.00;;;5.90;;
34064;SDS011;20339;49.754;20.158;2022-10-16T13:56:31;9.30;;;5.50;;
34064;SDS011;20339;49.754;20.158;2022-10-16T13:59:04;8.30;;;6.00;;
34064;SDS011;20339;49.754;20.158;2022-10-16T14:01:51;8.60;;;5.80;;
34064;SDS011;20339;49.754;20.158;2022-10-16T14:04:26;8.40;;;5.80;;
34064;SDS011;20339;49.754;20.158;2022-10-16T14:07:02;7.50;;;6.30;;
34064;SDS011;20339;49.754;20.158;2022-10-16T14:09:34;7.00;;;5.50;;
34064;SDS011;20339;49.754;20.158;2022-10-16T14:12:07;10.50;;;5.50;;
34064;SDS011;20339;49.754;20.158;2022-10-16T14:14:42;14.90;;;7.20;;
34064;SDS011;20339;49.754;20.158;2022-10-16T14:17:15;7.20;;;6.10;;
34064;SDS011;20339;49.754;20.158;2022-10-16T14:19:49;9.00;;;6.50;;
34064;SDS011;20339;49.754;20.158;2022-10-16T14:22:26;7.90;;;6.20;;
34064;SDS011;20339;49.754;20.158;2022-10-16T14:25:00;9.50;;;6.50;;
34064;SDS011;20339;49.754;20.158;2022-10-16T14:27:42;9.20;;;6.30;;
34064;SDS011;20339;49.754;20.158;2022-10-16T14:30:17;7.90;;;6.40;;
34064;SDS011;20339;49.754;20.158;2022-10-16T14:32:56;8.00;;;5.90;;
34064;SDS011;20339;49.754;20.158;2022-10-16T14:35:30;8.30;;;6.00;;
34064;SDS011;20339;49.754;20.158;2022-10-16T14:38:03;7.20;;;6.10;;
34064;SDS011;20339;49.754;20.158;2022-10-16T14:40:48;9.00;;;6.30;;
34064;SDS011;20339;49.754;20.158;2022-10-16T14:43:22;7.10;;;5.70;;
34064;SDS011;20339;49.754;20.158;2022-10-16T14:45:58;8.10;;;6.10;;
34064;SDS011;20339;49.754;20.158;2022-10-16T14:48:31;8.20;;;6.20;;
34064;SDS011;20339;49.754;20.158;2022-10-16T14:51:04;10.20;;;8.00;;
34064;SDS011;20339;49.754;20.158;2022-10-16T14:53:38;9.40;;;6.70;;
34064;SDS011;20339;49.754;20.158;2022-10-16T14:56:12;9.00;;;7.00;;
34064;SDS011;20339;49.754;20.158;2022-10-16T14:58:48;10.90;;;6.20;;
34064;SDS011;20339;49.754;20.158;2022-10-16T15:01:21;8.40;;;6.20;;
34064;SDS011;20339;49.754;20.158;2022-10-16T15:03:55;10.30;;;6.80;;
34064;SDS011;20339;49.754;20.158;2022-10-16T15:06:27;9.50;;;6.10;;
34064;SDS011;20339;49.754;20.158;2022-10-16T15:08:59;8.10;;;6.40;;
34064;SDS011;20339;49.754;20.158;2022-10-16T15:11:30;9.40;;;6.50;;
34064;SDS011;20339;49.754;20.158;2022-10-16T15:14:02;8.70;;;6.00;;
34064;SDS011;20339;49.754;20.158;2022-10-16T15:16:33;8.80;;;6.70;;
34064;SDS011;20339;49.754;20.158;2022-10-16T15:19:07;9.40;;;6.40;;
34064;SDS011;20339;49.754;20.158;2022-10-16T15:21:38;9.00;;;6.20;;
34064;SDS011;20339;49.754;20.158;2022-10-16T15:24:11;9.20;;;6.80;;